createdAt,value
2023-03-12T00:00:10.693Z,5.80
2023-03-12T00:05:32.852Z,5.40
2023-03-12T00:10:35.349Z,5.50
2023-03-12T00:15:38.667Z,5.30
2023-03-12T00:20:40.433Z,5.60
2023-03-12T00:25:44.194Z,5.60
2023-03-12T00:30:47.359Z,5.70
2023-03-12T00:35:49.274Z,5.90
2023-03-12T00:40:51.115Z,5.80
2023-03-12T00:45:53.497Z,5.00
2023-03-12T00:50:55.476Z,3.60
2023-03-12T00:55:57.462Z,5.90
2023-03-12T01:00:59.512Z,6.90
2023-03-12T01:06:01.413Z,5.50
2023-03-12T01:11:03.702Z,4.60
2023-03-12T01:16:06.168Z,6.30
2023-03-12T01:21:07.986Z,5.50
2023-03-12T01:26:09.741Z,5.40
2023-03-12T01:31:15.358Z,5.80
2023-03-12T01:36:26.137Z,5.70
2023-03-12T01:41:32.449Z,4.60
2023-03-12T01:46:39.873Z,6.10
2023-03-12T01:51:47.280Z,5.70
2023-03-12T01:56:50.221Z,5.30
2023-03-12T02:01:52.670Z,4.50
2023-03-12T02:06:54.443Z,5.00
2023-03-12T02:11:56.230Z,5.80
2023-03-12T02:16:58.405Z,4.80
2023-03-12T02:22:01.305Z,6.00
2023-03-12T02:27:05.024Z,5.70
2023-03-12T02:32:09.167Z,5.60
2023-03-12T02:37:11.036Z,5.40
2023-03-12T02:42:12.908Z,5.80
2023-03-12T02:47:15.399Z,5.20
2023-03-12T02:52:17.283Z,5.40
2023-03-12T02:57:19.155Z,4.40
2023-03-12T03:02:21.032Z,4.30
2023-03-12T03:07:22.930Z,3.80
2023-03-12T03:12:24.681Z,4.20
2023-03-12T03:17:26.970Z,3.70
2023-03-12T03:22:28.749Z,3.40
2023-03-12T03:27:30.527Z,3.40
2023-03-12T03:32:32.360Z,3.40
2023-03-12T03:37:34.175Z,2.70
2023-03-12T03:42:36.046Z,2.60
2023-03-12T03:47:38.518Z,2.60
2023-03-12T03:52:40.210Z,2.10
2023-03-12T03:57:41.877Z,2.20
2023-03-12T04:02:44.685Z,2.00
2023-03-12T04:07:47.169Z,1.90
2023-03-12T04:12:49.451Z,1.90
2023-03-12T04:17:51.273Z,2.10
2023-03-12T04:22:53.513Z,1.80
2023-03-12T04:27:55.186Z,2.20
2023-03-12T04:32:56.863Z,2.00
2023-03-12T04:38:01.197Z,2.10
2023-03-12T04:43:02.865Z,2.60
2023-03-12T04:48:05.979Z,2.10
2023-03-12T04:53:07.715Z,2.40
2023-03-12T04:58:09.827Z,2.10
2023-03-12T05:03:11.568Z,2.60
2023-03-12T05:08:13.704Z,2.30
2023-03-12T05:13:17.208Z,1.90
2023-03-12T05:18:20.927Z,1.80
2023-03-12T05:23:22.793Z,2.00
2023-03-12T05:28:27.826Z,1.80
2023-03-12T05:33:29.725Z,1.70
2023-03-12T05:38:31.709Z,2.00
2023-03-12T05:43:34.200Z,1.70
2023-03-12T05:48:36.683Z,1.80
2023-03-12T05:53:38.358Z,1.80
2023-03-12T05:58:41.153Z,1.70
2023-03-12T06:03:43.219Z,1.80
2023-03-12T06:08:45.822Z,2.00
2023-03-12T06:13:48.008Z,2.40
2023-03-12T06:18:57.051Z,1.30
2023-03-12T06:23:59.854Z,2.40
2023-03-12T06:29:01.620Z,1.70
2023-03-12T06:34:03.911Z,1.70
2023-03-12T06:39:05.988Z,2.90
2023-03-12T06:44:08.175Z,1.40
2023-03-12T06:49:11.177Z,2.10
2023-03-12T06:59:15.135Z,1.80
2023-03-12T07:04:17.222Z,1.80
2023-03-12T07:09:19.915Z,1.70
2023-03-12T07:19:23.592Z,1.90
2023-03-12T07:24:26.168Z,1.80
2023-03-12T07:29:28.042Z,13.80
2023-03-12T07:34:30.356Z,5.90
2023-03-12T07:39:32.905Z,2.50
2023-03-12T07:44:36.384Z,25.20
2023-03-12T07:49:41.199Z,5.30
2023-03-12T07:54:43.553Z,7.50
2023-03-12T07:59:46.906Z,4.60
2023-03-12T08:04:49.221Z,2.40
2023-03-12T08:09:52.084Z,2.40
2023-03-12T08:14:54.408Z,2.00
2023-03-12T08:19:58.280Z,2.10
2023-03-12T08:25:00.562Z,2.10
2023-03-12T08:30:05.003Z,2.10
2023-03-12T08:35:08.422Z,2.00
2023-03-12T08:40:14.616Z,1.90
2023-03-12T08:45:18.177Z,2.50
2023-03-12T08:55:27.907Z,2.20
2023-03-12T09:00:30.795Z,2.10
2023-03-12T09:05:33.190Z,2.10
2023-03-12T09:10:36.700Z,2.00
2023-03-12T09:15:39.095Z,2.20
2023-03-12T09:20:43.120Z,1.70
2023-03-12T09:25:46.335Z,2.30
2023-03-12T09:30:48.951Z,2.10
2023-03-12T09:35:58.939Z,2.10
2023-03-12T09:41:03.005Z,1.60
2023-03-12T09:46:15.708Z,2.70
2023-03-12T09:51:28.162Z,1.90
2023-03-12T09:56:31.063Z,2.10
2023-03-12T10:07:11.710Z,2.20
2023-03-12T10:12:17.298Z,2.30
2023-03-12T10:17:31.309Z,2.70
2023-03-12T10:22:59.607Z,2.80
2023-03-12T10:28:27.797Z,2.40
2023-03-12T10:33:41.454Z,3.00
2023-03-12T10:38:43.630Z,2.60
2023-03-12T10:43:45.816Z,2.40
2023-03-12T10:48:47.998Z,1.90
2023-03-12T10:53:51.922Z,1.60
2023-03-12T10:58:54.122Z,1.70
2023-03-12T11:04:14.727Z,5.80
2023-03-12T11:09:19.364Z,4.20
2023-03-12T11:14:24.837Z,2.20
2023-03-12T11:19:26.807Z,1.60
2023-03-12T11:24:29.805Z,2.90
2023-03-12T11:29:32.887Z,3.90
2023-03-12T11:39:43.633Z,2.90
2023-03-12T11:44:59.642Z,2.30
2023-03-12T11:50:23.942Z,8.40
2023-03-12T11:55:38.619Z,2.40
2023-03-12T12:00:51.968Z,4.30
2023-03-12T12:11:16.605Z,2.60
2023-03-12T12:16:46.599Z,1.60
2023-03-12T12:22:27.839Z,1.90
2023-03-12T12:27:36.684Z,2.90
2023-03-12T12:32:44.733Z,2.50
2023-03-12T12:38:19.038Z,2.80
2023-03-12T12:43:31.882Z,2.40
2023-03-12T12:48:39.686Z,2.10
2023-03-12T12:53:53.545Z,2.10
2023-03-12T12:59:33.683Z,2.20
2023-03-12T13:04:40.080Z,1.80
2023-03-12T13:09:53.146Z,3.30
2023-03-12T13:14:57.267Z,1.90
2023-03-12T13:20:27.900Z,2.00
2023-03-12T13:25:45.778Z,2.00
2023-03-12T13:30:54.250Z,5.10
2023-03-12T13:36:05.493Z,5.70
2023-03-12T13:41:09.323Z,6.90
2023-03-12T13:46:37.563Z,7.20
2023-03-12T13:51:55.222Z,9.20
2023-03-12T13:57:02.068Z,7.60
2023-03-12T14:02:15.311Z,4.10
2023-03-12T14:07:48.310Z,4.10
2023-03-12T14:13:05.747Z,5.20
2023-03-12T14:18:22.162Z,6.90
2023-03-12T14:23:34.281Z,6.50
2023-03-12T14:28:41.290Z,11.90
2023-03-12T14:34:16.055Z,7.00
2023-03-12T14:39:18.859Z,4.10
2023-03-12T14:44:27.249Z,4.20
2023-03-12T14:49:31.059Z,3.60
2023-03-12T14:54:33.204Z,3.00
2023-03-12T14:59:37.290Z,4.50
2023-03-12T15:04:40.865Z,4.30
2023-03-12T15:09:46.300Z,4.40
2023-03-12T15:14:52.437Z,3.60
2023-03-12T15:19:56.873Z,11.10
2023-03-12T15:25:15.956Z,7.70
2023-03-12T15:30:25.795Z,13.50
2023-03-12T15:35:32.193Z,14.70
2023-03-12T15:40:34.381Z,16.90
2023-03-12T15:45:38.608Z,15.70
2023-03-12T15:50:43.459Z,19.70
2023-03-12T15:55:59.279Z,37.00
2023-03-12T16:01:12.664Z,59.10
2023-03-12T16:06:17.874Z,25.80
2023-03-12T16:11:26.220Z,28.70
2023-03-12T16:16:28.356Z,45.10
2023-03-12T16:21:30.469Z,34.20
2023-03-12T16:26:35.248Z,31.10
2023-03-12T16:31:37.623Z,12.80
2023-03-12T16:36:39.422Z,9.70
2023-03-12T16:41:42.167Z,5.60
2023-03-12T16:46:44.752Z,7.40
2023-03-12T16:51:48.069Z,3.80
2023-03-12T16:56:50.675Z,5.60
2023-03-12T17:01:54.686Z,6.00
2023-03-12T17:06:56.765Z,4.30
2023-03-12T17:11:58.967Z,5.20
2023-03-12T17:17:00.975Z,11.90
2023-03-12T17:22:04.146Z,7.70
2023-03-12T17:32:08.919Z,7.60
2023-03-12T17:37:10.993Z,10.20
2023-03-12T17:42:13.027Z,15.50
2023-03-12T17:47:15.792Z,11.10
2023-03-12T17:52:19.753Z,7.50
2023-03-12T17:57:24.969Z,11.10
2023-03-12T18:02:29.527Z,19.30
2023-03-12T18:07:34.711Z,11.40
2023-03-12T18:12:40.944Z,9.80
2023-03-12T18:17:50.673Z,10.10
2023-03-12T18:22:53.696Z,9.90
2023-03-12T18:27:56.836Z,6.30
2023-03-12T18:38:01.698Z,8.60
2023-03-12T18:43:03.866Z,18.90
2023-03-12T18:48:06.891Z,46.90
2023-03-12T18:53:09.261Z,66.30
2023-03-12T18:58:11.853Z,62.10
2023-03-12T19:03:15.022Z,81.50
2023-03-12T19:08:20.420Z,95.60
2023-03-12T19:13:23.457Z,109.50
2023-03-12T19:18:26.332Z,91.70
2023-03-12T19:23:29.946Z,77.20
2023-03-12T19:28:34.119Z,61.40
2023-03-12T19:33:37.600Z,62.20
2023-03-12T19:38:40.080Z,66.50
2023-03-12T19:43:43.310Z,73.60
2023-03-12T19:48:46.391Z,69.90
2023-03-12T19:58:51.574Z,88.50
2023-03-12T20:03:56.231Z,70.70
2023-03-12T20:08:58.601Z,83.00
2023-03-12T20:14:00.477Z,117.20
2023-03-12T20:19:04.499Z,118.00
2023-03-12T20:24:06.897Z,82.00
2023-03-12T20:29:09.487Z,208.90
2023-03-12T20:34:11.770Z,112.60
2023-03-12T20:39:14.115Z,115.30
2023-03-12T20:44:18.395Z,79.20
2023-03-12T20:49:21.187Z,80.90
2023-03-12T20:54:23.685Z,69.30
2023-03-12T20:59:28.835Z,68.90
2023-03-12T21:04:31.230Z,41.40
2023-03-12T21:09:34.247Z,34.40
2023-03-12T21:14:38.632Z,34.10
2023-03-12T21:19:41.771Z,38.70
2023-03-12T21:24:43.861Z,35.40
2023-03-12T21:29:45.530Z,38.00
2023-03-12T21:34:48.088Z,48.10
2023-03-12T21:39:50.506Z,37.30
2023-03-12T21:44:52.901Z,36.70
2023-03-12T21:49:56.211Z,21.80
2023-03-12T21:54:58.101Z,17.50
2023-03-12T21:59:59.845Z,12.80
2023-03-12T22:05:01.533Z,25.70
2023-03-12T22:10:05.761Z,24.50
2023-03-12T22:15:09.613Z,40.80
2023-03-12T22:20:12.178Z,48.70
2023-03-12T22:25:14.058Z,41.40
2023-03-12T22:30:16.460Z,42.70
2023-03-12T22:35:25.282Z,325.70
2023-03-12T22:40:27.468Z,43.20
2023-03-12T22:45:29.242Z,61.50
2023-03-12T22:50:32.732Z,24.90
2023-03-12T23:00:36.205Z,57.50
2023-03-12T23:05:37.974Z,42.70
2023-03-12T23:10:39.951Z,39.60
2023-03-12T23:15:42.168Z,37.10
2023-03-12T23:20:45.245Z,24.00
2023-03-12T23:25:53.173Z,23.60
2023-03-12T23:31:07.643Z,22.70
2023-03-12T23:36:15.760Z,25.70
2023-03-12T23:41:23.265Z,13.60
2023-03-12T23:46:27.018Z,22.70
2023-03-12T23:51:32.408Z,21.40
2023-03-12T23:56:36.984Z,25.40
